sensor_id;sensor_type;location;lat;lon;timestamp;temperature;humidity
68026;SHT31;54819;48.030;14.710;2023-07-20T00:02:39;20.62;67.01
68026;SHT31;54819;48.030;14.710;2023-07-20T00:05:06;20.67;66.95
68026;SHT31;54819;48.030;14.710;2023-07-20T00:07:33;20.70;67.12
68026;SHT31;54819;48.030;14.710;2023-07-20T00:10:00;20.73;67.60
68026;SHT31;54819;48.030;14.710;2023-07-20T00:12:27;20.70;67.53
68026;SHT31;54819;48.030;14.710;2023-07-20T00:14:54;20.64;69.08
68026;SHT31;54819;48.030;14.710;2023-07-20T00:17:20;20.57;69.02
68026;SHT31;54819;48.030;14.710;2023-07-20T00:19:47;20.53;69.35
68026;SHT31;54819;48.030;14.710;2023-07-20T00:22:14;20.54;69.28
68026;SHT31;54819;48.030;14.710;2023-07-20T00:24:40;20.57;69.25
68026;SHT31;54819;48.030;14.710;2023-07-20T00:27:07;20.58;69.30
68026;SHT31;54819;48.030;14.710;2023-07-20T00:29:35;20.58;69.32
68026;SHT31;54819;48.030;14.710;2023-07-20T00:32:02;20.58;69.46
68026;SHT31;54819;48.030;14.710;2023-07-20T00:34:31;20.57;69.40
68026;SHT31;54819;48.030;14.710;2023-07-20T00:36:58;20.55;69.19
68026;SHT31;54819;48.030;14.710;2023-07-20T00:39:25;20.50;69.29
68026;SHT31;54819;48.030;14.710;2023-07-20T00:41:51;20.48;69.57
68026;SHT31;54819;48.030;14.710;2023-07-20T00:44:18;20.44;69.77
68026;SHT31;54819;48.030;14.710;2023-07-20T00:46:45;20.40;69.86
68026;SHT31;54819;48.030;14.710;2023-07-20T00:49:13;20.37;69.91
68026;SHT31;54819;48.030;14.710;2023-07-20T00:51:40;20.34;70.18
68026;SHT31;54819;48.030;14.710;2023-07-20T00:54:08;20.33;70.49
68026;SHT31;54819;48.030;14.710;2023-07-20T00:56:35;20.33;70.60
68026;SHT31;54819;48.030;14.710;2023-07-20T00:59:04;20.34;70.81
68026;SHT31;54819;48.030;14.710;2023-07-20T01:01:31;20.35;70.72
68026;SHT31;54819;48.030;14.710;2023-07-20T01:03:58;20.35;70.82
68026;SHT31;54819;48.030;14.710;2023-07-20T01:09:27;20.32;70.92
68026;SHT31;54819;48.030;14.710;2023-07-20T01:14:25;20.28;71.15
68026;SHT31;54819;48.030;14.710;2023-07-20T01:16:52;20.22;71.10
68026;SHT31;54819;48.030;14.710;2023-07-20T01:19:19;20.17;71.19
68026;SHT31;54819;48.030;14.710;2023-07-20T01:21:56;20.13;71.10
68026;SHT31;54819;48.030;14.710;2023-07-20T01:24:50;20.08;71.06
68026;SHT31;54819;48.030;14.710;2023-07-20T01:33:25;19.91;71.43
68026;SHT31;54819;48.030;14.710;2023-07-20T01:35:54;19.87;71.56
68026;SHT31;54819;48.030;14.710;2023-07-20T01:38:23;19.83;71.60
68026;SHT31;54819;48.030;14.710;2023-07-20T01:40:51;19.78;71.82
68026;SHT31;54819;48.030;14.710;2023-07-20T01:43:19;19.77;71.93
68026;SHT31;54819;48.030;14.710;2023-07-20T01:45:46;19.75;71.88
68026;SHT31;54819;48.030;14.710;2023-07-20T01:48:13;19.72;71.80
68026;SHT31;54819;48.030;14.710;2023-07-20T01:50:40;19.69;71.91
68026;SHT31;54819;48.030;14.710;2023-07-20T01:53:08;19.66;72.02
68026;SHT31;54819;48.030;14.710;2023-07-20T01:55:34;19.63;72.17
68026;SHT31;54819;48.030;14.710;2023-07-20T01:58:01;19.61;72.35
68026;SHT31;54819;48.030;14.710;2023-07-20T02:00:29;19.58;72.50
68026;SHT31;54819;48.030;14.710;2023-07-20T02:02:56;19.56;72.50
68026;SHT31;54819;48.030;14.710;2023-07-20T02:05:23;19.53;72.48
68026;SHT31;54819;48.030;14.710;2023-07-20T02:07:50;19.52;72.60
68026;SHT31;54819;48.030;14.710;2023-07-20T02:10:17;19.51;72.73
68026;SHT31;54819;48.030;14.710;2023-07-20T02:12:44;19.50;72.64
68026;SHT31;54819;48.030;14.710;2023-07-20T02:15:11;19.50;72.37
68026;SHT31;54819;48.030;14.710;2023-07-20T02:17:39;19.50;72.02
68026;SHT31;54819;48.030;14.710;2023-07-20T02:20:08;19.51;71.46
68026;SHT31;54819;48.030;14.710;2023-07-20T02:22:36;19.54;71.20
68026;SHT31;54819;48.030;14.710;2023-07-20T02:25:07;19.59;70.86
68026;SHT31;54819;48.030;14.710;2023-07-20T02:27:34;19.62;70.69
68026;SHT31;54819;48.030;14.710;2023-07-20T02:30:01;19.66;70.50
68026;SHT31;54819;48.030;14.710;2023-07-20T02:32:29;19.69;70.45
68026;SHT31;54819;48.030;14.710;2023-07-20T02:34:57;19.72;70.34
68026;SHT31;54819;48.030;14.710;2023-07-20T02:37:24;19.75;70.29
68026;SHT31;54819;48.030;14.710;2023-07-20T02:39:51;19.77;70.26
68026;SHT31;54819;48.030;14.710;2023-07-20T02:42:18;19.76;70.30
68026;SHT31;54819;48.030;14.710;2023-07-20T02:44:45;19.74;70.37
68026;SHT31;54819;48.030;14.710;2023-07-20T02:47:12;19.71;70.51
68026;SHT31;54819;48.030;14.710;2023-07-20T02:49:39;19.66;70.66
68026;SHT31;54819;48.030;14.710;2023-07-20T02:52:05;19.60;70.72
68026;SHT31;54819;48.030;14.710;2023-07-20T02:54:32;19.55;70.74
68026;SHT31;54819;48.030;14.710;2023-07-20T02:56:59;19.51;70.76
68026;SHT31;54819;48.030;14.710;2023-07-20T02:59:26;19.47;70.81
68026;SHT31;54819;48.030;14.710;2023-07-20T03:01:53;19.44;70.69
68026;SHT31;54819;48.030;14.710;2023-07-20T03:04:20;19.42;70.92
68026;SHT31;54819;48.030;14.710;2023-07-20T03:06:48;19.37;71.15
68026;SHT31;54819;48.030;14.710;2023-07-20T03:09:14;19.31;71.40
68026;SHT31;54819;48.030;14.710;2023-07-20T03:11:42;19.26;71.49
68026;SHT31;54819;48.030;14.710;2023-07-20T03:14:10;19.21;71.66
68026;SHT31;54819;48.030;14.710;2023-07-20T03:16:38;19.14;71.70
68026;SHT31;54819;48.030;14.710;2023-07-20T03:19:04;19.11;71.73
68026;SHT31;54819;48.030;14.710;2023-07-20T03:21:31;19.06;71.74
68026;SHT31;54819;48.030;14.710;2023-07-20T03:23:58;19.05;71.81
68026;SHT31;54819;48.030;14.710;2023-07-20T03:26:25;19.04;71.90
68026;SHT31;54819;48.030;14.710;2023-07-20T03:28:51;19.04;71.92
68026;SHT31;54819;48.030;14.710;2023-07-20T03:31:20;19.03;71.87
68026;SHT31;54819;48.030;14.710;2023-07-20T03:33:47;19.05;71.94
68026;SHT31;54819;48.030;14.710;2023-07-20T03:36:14;19.07;72.03
68026;SHT31;54819;48.030;14.710;2023-07-20T03:38:40;19.11;72.03
68026;SHT31;54819;48.030;14.710;2023-07-20T03:41:07;19.13;72.18
68026;SHT31;54819;48.030;14.710;2023-07-20T03:43:34;19.18;72.29
68026;SHT31;54819;48.030;14.710;2023-07-20T03:46:00;19.20;72.33
68026;SHT31;54819;48.030;14.710;2023-07-20T03:48:27;19.22;72.25
68026;SHT31;54819;48.030;14.710;2023-07-20T03:50:54;19.26;72.18
68026;SHT31;54819;48.030;14.710;2023-07-20T03:53:21;19.30;71.96
68026;SHT31;54819;48.030;14.710;2023-07-20T03:55:49;19.38;71.83
68026;SHT31;54819;48.030;14.710;2023-07-20T03:58:18;19.49;71.66
68026;SHT31;54819;48.030;14.710;2023-07-20T04:00:46;19.59;71.59
68026;SHT31;54819;48.030;14.710;2023-07-20T04:03:14;19.70;71.54
68026;SHT31;54819;48.030;14.710;2023-07-20T04:05:41;19.81;71.44
68026;SHT31;54819;48.030;14.710;2023-07-20T04:08:09;19.90;71.32
68026;SHT31;54819;48.030;14.710;2023-07-20T04:10:43;20.00;71.31
68026;SHT31;54819;48.030;14.710;2023-07-20T04:13:10;20.06;71.28
68026;SHT31;54819;48.030;14.710;2023-07-20T04:15:37;20.13;71.28
68026;SHT31;54819;48.030;14.710;2023-07-20T04:18:03;20.21;71.22
68026;SHT31;54819;48.030;14.710;2023-07-20T04:20:30;20.32;71.14
68026;SHT31;54819;48.030;14.710;2023-07-20T04:22:58;20.43;70.98
68026;SHT31;54819;48.030;14.710;2023-07-20T04:25:24;20.55;70.63
68026;SHT31;54819;48.030;14.710;2023-07-20T04:27:52;20.65;70.44
68026;SHT31;54819;48.030;14.710;2023-07-20T04:30:20;20.78;70.35
68026;SHT31;54819;48.030;14.710;2023-07-20T04:32:48;20.92;70.02
68026;SHT31;54819;48.030;14.710;2023-07-20T04:36:02;21.10;69.76
68026;SHT31;54819;48.030;14.710;2023-07-20T04:38:27;21.26;69.43
68026;SHT31;54819;48.030;14.710;2023-07-20T04:41:01;21.27;69.20
68026;SHT31;54819;48.030;14.710;2023-07-20T04:43:31;21.31;69.16
68026;SHT31;54819;48.030;14.710;2023-07-20T04:45:58;21.32;68.97
68026;SHT31;54819;48.030;14.710;2023-07-20T04:48:25;21.32;68.94
68026;SHT31;54819;48.030;14.710;2023-07-20T04:50:53;21.35;68.99
68026;SHT31;54819;48.030;14.710;2023-07-20T04:53:22;21.40;69.00
68026;SHT31;54819;48.030;14.710;2023-07-20T04:55:50;21.44;69.13
68026;SHT31;54819;48.030;14.710;2023-07-20T04:58:19;21.44;69.28
68026;SHT31;54819;48.030;14.710;2023-07-20T05:00:48;21.41;69.21
68026;SHT31;54819;48.030;14.710;2023-07-20T05:03:17;21.41;69.36
68026;SHT31;54819;48.030;14.710;2023-07-20T05:05:44;21.41;69.70
68026;SHT31;54819;48.030;14.710;2023-07-20T05:08:15;21.42;69.48
68026;SHT31;54819;48.030;14.710;2023-07-20T05:10:42;21.45;69.33
68026;SHT31;54819;48.030;14.710;2023-07-20T05:13:09;21.46;69.32
68026;SHT31;54819;48.030;14.710;2023-07-20T05:15:36;21.46;68.99
68026;SHT31;54819;48.030;14.710;2023-07-20T05:18:04;21.42;68.78
68026;SHT31;54819;48.030;14.710;2023-07-20T05:20:31;21.40;68.64
68026;SHT31;54819;48.030;14.710;2023-07-20T05:22:59;21.40;68.55
68026;SHT31;54819;48.030;14.710;2023-07-20T05:25:27;21.41;68.36
68026;SHT31;54819;48.030;14.710;2023-07-20T05:27:57;21.45;68.10
68026;SHT31;54819;48.030;14.710;2023-07-20T05:30:23;21.53;67.86
68026;SHT31;54819;48.030;14.710;2023-07-20T05:32:50;21.61;67.56
68026;SHT31;54819;48.030;14.710;2023-07-20T05:35:19;21.69;67.09
68026;SHT31;54819;48.030;14.710;2023-07-20T05:37:46;21.77;66.80
68026;SHT31;54819;48.030;14.710;2023-07-20T05:40:13;21.87;66.45
68026;SHT31;54819;48.030;14.710;2023-07-20T05:42:47;21.98;66.23
68026;SHT31;54819;48.030;14.710;2023-07-20T05:45:18;22.06;65.84
68026;SHT31;54819;48.030;14.710;2023-07-20T05:47:45;22.10;65.45
68026;SHT31;54819;48.030;14.710;2023-07-20T05:50:13;22.11;65.24
68026;SHT31;54819;48.030;14.710;2023-07-20T05:52:41;22.14;65.19
68026;SHT31;54819;48.030;14.710;2023-07-20T05:55:08;22.13;65.09
68026;SHT31;54819;48.030;14.710;2023-07-20T05:57:35;22.19;65.02
68026;SHT31;54819;48.030;14.710;2023-07-20T06:00:02;22.30;64.90
68026;SHT31;54819;48.030;14.710;2023-07-20T06:02:37;22.37;64.58
68026;SHT31;54819;48.030;14.710;2023-07-20T06:05:05;22.54;64.45
68026;SHT31;54819;48.030;14.710;2023-07-20T06:07:39;22.67;64.36
68026;SHT31;54819;48.030;14.710;2023-07-20T06:10:06;22.75;64.32
68026;SHT31;54819;48.030;14.710;2023-07-20T06:12:33;22.83;64.12
68026;SHT31;54819;48.030;14.710;2023-07-20T06:15:01;22.92;64.05
68026;SHT31;54819;48.030;14.710;2023-07-20T06:17:30;23.07;64.02
68026;SHT31;54819;48.030;14.710;2023-07-20T06:19:57;23.17;63.91
68026;SHT31;54819;48.030;14.710;2023-07-20T06:22:23;23.23;63.83
68026;SHT31;54819;48.030;14.710;2023-07-20T06:24:50;23.30;63.61
68026;SHT31;54819;48.030;14.710;2023-07-20T06:27:17;23.38;63.12
68026;SHT31;54819;48.030;14.710;2023-07-20T06:29:43;23.47;63.43
68026;SHT31;54819;48.030;14.710;2023-07-20T06:32:10;23.63;63.44
68026;SHT31;54819;48.030;14.710;2023-07-20T06:34:37;23.71;63.23
68026;SHT31;54819;48.030;14.710;2023-07-20T06:37:04;23.80;63.10
68026;SHT31;54819;48.030;14.710;2023-07-20T06:39:31;23.89;62.63
68026;SHT31;54819;48.030;14.710;2023-07-20T06:42:00;23.93;62.30
68026;SHT31;54819;48.030;14.710;2023-07-20T06:44:27;24.04;61.94
68026;SHT31;54819;48.030;14.710;2023-07-20T06:46:54;24.13;61.54
68026;SHT31;54819;48.030;14.710;2023-07-20T06:49:27;24.24;61.21
68026;SHT31;54819;48.030;14.710;2023-07-20T06:51:54;24.36;60.71
68026;SHT31;54819;48.030;14.710;2023-07-20T06:54:21;24.50;59.79
68026;SHT31;54819;48.030;14.710;2023-07-20T06:56:49;24.57;59.47
68026;SHT31;54819;48.030;14.710;2023-07-20T06:59:36;24.52;59.90
68026;SHT31;54819;48.030;14.710;2023-07-20T07:02:07;24.43;60.03
68026;SHT31;54819;48.030;14.710;2023-07-20T07:04:40;24.30;60.68
68026;SHT31;54819;48.030;14.710;2023-07-20T07:07:08;24.19;61.33
68026;SHT31;54819;48.030;14.710;2023-07-20T07:09:36;24.08;61.77
68026;SHT31;54819;48.030;14.710;2023-07-20T07:12:03;24.03;61.88
68026;SHT31;54819;48.030;14.710;2023-07-20T07:14:30;24.06;61.56
68026;SHT31;54819;48.030;14.710;2023-07-20T07:16:59;24.14;61.26
68026;SHT31;54819;48.030;14.710;2023-07-20T07:19:31;24.36;60.58
68026;SHT31;54819;48.030;14.710;2023-07-20T07:21:57;24.57;59.96
68026;SHT31;54819;48.030;14.710;2023-07-20T07:24:26;24.68;58.13
68026;SHT31;54819;48.030;14.710;2023-07-20T07:26:55;24.60;57.13
68026;SHT31;54819;48.030;14.710;2023-07-20T07:29:22;24.53;57.50
68026;SHT31;54819;48.030;14.710;2023-07-20T07:31:49;24.47;57.31
68026;SHT31;54819;48.030;14.710;2023-07-20T07:34:15;24.40;57.00
68026;SHT31;54819;48.030;14.710;2023-07-20T07:36:42;24.40;56.84
68026;SHT31;54819;48.030;14.710;2023-07-20T07:39:09;24.38;56.48
68026;SHT31;54819;48.030;14.710;2023-07-20T07:41:39;24.34;55.97
68026;SHT31;54819;48.030;14.710;2023-07-20T07:44:06;24.35;56.20
68026;SHT31;54819;48.030;14.710;2023-07-20T07:46:33;24.40;55.85
68026;SHT31;54819;48.030;14.710;2023-07-20T07:48:59;24.40;55.72
68026;SHT31;54819;48.030;14.710;2023-07-20T07:51:26;24.47;55.70
68026;SHT31;54819;48.030;14.710;2023-07-20T07:53:55;24.53;55.25
68026;SHT31;54819;48.030;14.710;2023-07-20T07:56:22;24.68;55.26
68026;SHT31;54819;48.030;14.710;2023-07-20T07:58:50;24.83;55.71
68026;SHT31;54819;48.030;14.710;2023-07-20T08:01:18;25.10;55.72
68026;SHT31;54819;48.030;14.710;2023-07-20T08:03:49;25.39;55.18
68026;SHT31;54819;48.030;14.710;2023-07-20T08:06:16;25.57;54.99
68026;SHT31;54819;48.030;14.710;2023-07-20T08:08:42;25.70;54.45
68026;SHT31;54819;48.030;14.710;2023-07-20T08:11:09;25.69;53.68
68026;SHT31;54819;48.030;14.710;2023-07-20T08:13:38;25.82;53.91
68026;SHT31;54819;48.030;14.710;2023-07-20T08:16:05;25.91;54.29
68026;SHT31;54819;48.030;14.710;2023-07-20T08:18:31;25.83;53.89
68026;SHT31;54819;48.030;14.710;2023-07-20T08:20:59;25.67;53.55
68026;SHT31;54819;48.030;14.710;2023-07-20T08:23:26;25.56;53.53
68026;SHT31;54819;48.030;14.710;2023-07-20T08:25:54;25.41;53.82
68026;SHT31;54819;48.030;14.710;2023-07-20T08:28:21;25.30;53.92
68026;SHT31;54819;48.030;14.710;2023-07-20T08:30:48;25.17;53.99
68026;SHT31;54819;48.030;14.710;2023-07-20T08:33:16;25.09;53.89
68026;SHT31;54819;48.030;14.710;2023-07-20T08:35:47;25.06;53.94
68026;SHT31;54819;48.030;14.710;2023-07-20T08:38:14;25.07;53.95
68026;SHT31;54819;48.030;14.710;2023-07-20T08:40:41;25.18;53.91
68026;SHT31;54819;48.030;14.710;2023-07-20T08:43:10;25.28;53.39
68026;SHT31;54819;48.030;14.710;2023-07-20T08:45:38;25.42;53.03
68026;SHT31;54819;48.030;14.710;2023-07-20T08:48:07;25.49;51.44
68026;SHT31;54819;48.030;14.710;2023-07-20T08:50:34;25.40;51.29
68026;SHT31;54819;48.030;14.710;2023-07-20T08:53:02;25.31;51.07
68026;SHT31;54819;48.030;14.710;2023-07-20T08:55:29;25.20;50.67
68026;SHT31;54819;48.030;14.710;2023-07-20T08:57:58;25.11;50.96
68026;SHT31;54819;48.030;14.710;2023-07-20T09:00:26;25.04;50.85
68026;SHT31;54819;48.030;14.710;2023-07-20T09:02:56;24.97;50.44
68026;SHT31;54819;48.030;14.710;2023-07-20T09:05:24;25.09;50.59
68026;SHT31;54819;48.030;14.710;2023-07-20T09:07:53;25.30;50.24
68026;SHT31;54819;48.030;14.710;2023-07-20T09:10:23;25.41;50.29
68026;SHT31;54819;48.030;14.710;2023-07-20T09:12:51;25.42;49.74
68026;SHT31;54819;48.030;14.710;2023-07-20T09:15:18;25.41;49.67
68026;SHT31;54819;48.030;14.710;2023-07-20T09:17:46;25.38;50.00
68026;SHT31;54819;48.030;14.710;2023-07-20T09:20:18;25.31;49.34
68026;SHT31;54819;48.030;14.710;2023-07-20T09:22:50;25.19;49.64
68026;SHT31;54819;48.030;14.710;2023-07-20T09:25:19;25.09;49.52
68026;SHT31;54819;48.030;14.710;2023-07-20T09:27:49;24.97;49.66
68026;SHT31;54819;48.030;14.710;2023-07-20T09:30:18;24.90;49.85
68026;SHT31;54819;48.030;14.710;2023-07-20T09:32:49;24.84;49.89
68026;SHT31;54819;48.030;14.710;2023-07-20T09:35:20;24.84;49.36
68026;SHT31;54819;48.030;14.710;2023-07-20T09:37:53;24.88;49.96
68026;SHT31;54819;48.030;14.710;2023-07-20T09:40:41;24.94;49.79
68026;SHT31;54819;48.030;14.710;2023-07-20T09:43:11;25.01;49.38
68026;SHT31;54819;48.030;14.710;2023-07-20T09:45:41;25.06;48.96
68026;SHT31;54819;48.030;14.710;2023-07-20T09:48:12;25.13;48.84
68026;SHT31;54819;48.030;14.710;2023-07-20T09:50:52;25.13;48.45
68026;SHT31;54819;48.030;14.710;2023-07-20T09:53:20;25.07;48.32
68026;SHT31;54819;48.030;14.710;2023-07-20T09:55:47;25.01;48.93
68026;SHT31;54819;48.030;14.710;2023-07-20T09:58:15;25.06;49.18
68026;SHT31;54819;48.030;14.710;2023-07-20T10:00:43;25.09;48.64
68026;SHT31;54819;48.030;14.710;2023-07-20T10:03:20;25.19;49.00
68026;SHT31;54819;48.030;14.710;2023-07-20T10:05:53;25.40;49.26
68026;SHT31;54819;48.030;14.710;2023-07-20T10:08:26;25.61;48.20
68026;SHT31;54819;48.030;14.710;2023-07-20T10:10:59;25.78;47.72
68026;SHT31;54819;48.030;14.710;2023-07-20T10:13:29;25.86;48.14
68026;SHT31;54819;48.030;14.710;2023-07-20T10:18:57;25.85;47.79
68026;SHT31;54819;48.030;14.710;2023-07-20T10:21:29;26.01;48.23
68026;SHT31;54819;48.030;14.710;2023-07-20T10:24:00;26.23;48.58
68026;SHT31;54819;48.030;14.710;2023-07-20T10:26:27;26.31;46.68
68026;SHT31;54819;48.030;14.710;2023-07-20T10:28:55;26.33;47.31
68026;SHT31;54819;48.030;14.710;2023-07-20T10:31:23;26.35;47.21
68026;SHT31;54819;48.030;14.710;2023-07-20T10:33:51;26.42;46.86
68026;SHT31;54819;48.030;14.710;2023-07-20T10:36:24;26.55;47.13
68026;SHT31;54819;48.030;14.710;2023-07-20T10:38:57;26.69;46.25
68026;SHT31;54819;48.030;14.710;2023-07-20T10:41:34;26.63;45.34
68026;SHT31;54819;48.030;14.710;2023-07-20T10:44:03;26.64;45.73
68026;SHT31;54819;48.030;14.710;2023-07-20T10:46:35;26.70;45.78
68026;SHT31;54819;48.030;14.710;2023-07-20T10:49:10;26.75;45.77
68026;SHT31;54819;48.030;14.710;2023-07-20T10:51:39;26.87;45.51
68026;SHT31;54819;48.030;14.710;2023-07-20T10:54:08;27.00;45.01
68026;SHT31;54819;48.030;14.710;2023-07-20T10:56:35;26.91;43.16
68026;SHT31;54819;48.030;14.710;2023-07-20T10:59:17;26.86;44.70
68026;SHT31;54819;48.030;14.710;2023-07-20T11:01:50;26.85;43.75
68026;SHT31;54819;48.030;14.710;2023-07-20T11:07:37;26.96;43.29
68026;SHT31;54819;48.030;14.710;2023-07-20T11:10:14;27.01;42.68
68026;SHT31;54819;48.030;14.710;2023-07-20T11:18:25;27.08;43.80
68026;SHT31;54819;48.030;14.710;2023-07-20T11:20:52;27.11;43.83
68026;SHT31;54819;48.030;14.710;2023-07-20T11:23:20;27.04;42.84
68026;SHT31;54819;48.030;14.710;2023-07-20T11:25:47;26.96;43.92
68026;SHT31;54819;48.030;14.710;2023-07-20T11:28:15;26.94;44.09
68026;SHT31;54819;48.030;14.710;2023-07-20T11:30:42;26.93;44.33
68026;SHT31;54819;48.030;14.710;2023-07-20T11:33:09;26.97;44.18
68026;SHT31;54819;48.030;14.710;2023-07-20T11:35:36;26.99;44.34
68026;SHT31;54819;48.030;14.710;2023-07-20T11:38:09;26.98;45.15
68026;SHT31;54819;48.030;14.710;2023-07-20T11:40:36;27.05;45.22
68026;SHT31;54819;48.030;14.710;2023-07-20T11:43:03;27.09;44.96
68026;SHT31;54819;48.030;14.710;2023-07-20T11:45:32;27.07;43.35
68026;SHT31;54819;48.030;14.710;2023-07-20T11:47:59;26.92;42.36
68026;SHT31;54819;48.030;14.710;2023-07-20T11:50:27;26.84;43.31
68026;SHT31;54819;48.030;14.710;2023-07-20T11:52:53;26.81;43.26
68026;SHT31;54819;48.030;14.710;2023-07-20T11:55:20;26.81;43.34
68026;SHT31;54819;48.030;14.710;2023-07-20T11:58:09;26.97;43.59
68026;SHT31;54819;48.030;14.710;2023-07-20T12:00:36;27.07;43.19
68026;SHT31;54819;48.030;14.710;2023-07-20T12:03:06;27.04;43.34
68026;SHT31;54819;48.030;14.710;2023-07-20T12:05:34;27.01;43.33
68026;SHT31;54819;48.030;14.710;2023-07-20T12:08:13;27.13;43.67
68026;SHT31;54819;48.030;14.710;2023-07-20T12:10:40;27.17;42.45
68026;SHT31;54819;48.030;14.710;2023-07-20T12:13:10;27.15;42.59
68026;SHT31;54819;48.030;14.710;2023-07-20T12:15:38;26.94;42.44
68026;SHT31;54819;48.030;14.710;2023-07-20T12:18:04;26.74;43.09
68026;SHT31;54819;48.030;14.710;2023-07-20T12:20:35;26.63;43.79
68026;SHT31;54819;48.030;14.710;2023-07-20T12:23:13;26.52;44.10
68026;SHT31;54819;48.030;14.710;2023-07-20T12:28:12;26.41;44.85
68026;SHT31;54819;48.030;14.710;2023-07-20T12:30:41;26.39;45.11
68026;SHT31;54819;48.030;14.710;2023-07-20T12:33:10;26.30;44.68
68026;SHT31;54819;48.030;14.710;2023-07-20T12:35:46;26.25;44.45
68026;SHT31;54819;48.030;14.710;2023-07-20T12:38:13;26.24;44.69
68026;SHT31;54819;48.030;14.710;2023-07-20T12:40:39;26.27;45.15
68026;SHT31;54819;48.030;14.710;2023-07-20T12:43:07;26.25;45.16
68026;SHT31;54819;48.030;14.710;2023-07-20T12:45:34;26.16;44.93
68026;SHT31;54819;48.030;14.710;2023-07-20T12:48:01;26.04;45.19
68026;SHT31;54819;48.030;14.710;2023-07-20T12:50:27;25.97;45.53
68026;SHT31;54819;48.030;14.710;2023-07-20T12:52:54;25.90;45.16
68026;SHT31;54819;48.030;14.710;2023-07-20T12:55:21;25.84;45.04
68026;SHT31;54819;48.030;14.710;2023-07-20T12:57:47;25.83;45.82
68026;SHT31;54819;48.030;14.710;2023-07-20T13:00:14;25.90;45.62
68026;SHT31;54819;48.030;14.710;2023-07-20T13:02:42;26.02;45.40
68026;SHT31;54819;48.030;14.710;2023-07-20T13:05:10;26.21;45.23
68026;SHT31;54819;48.030;14.710;2023-07-20T13:07:37;26.42;44.98
68026;SHT31;54819;48.030;14.710;2023-07-20T13:10:08;26.58;43.63
68026;SHT31;54819;48.030;14.710;2023-07-20T13:12:37;26.60;43.65
68026;SHT31;54819;48.030;14.710;2023-07-20T13:15:05;26.55;42.70
68026;SHT31;54819;48.030;14.710;2023-07-20T13:17:34;26.62;43.38
68026;SHT31;54819;48.030;14.710;2023-07-20T13:20:05;26.72;42.78
68026;SHT31;54819;48.030;14.710;2023-07-20T13:22:35;26.74;41.90
68026;SHT31;54819;48.030;14.710;2023-07-20T13:25:02;26.72;42.46
68026;SHT31;54819;48.030;14.710;2023-07-20T13:27:29;26.80;42.65
68026;SHT31;54819;48.030;14.710;2023-07-20T13:29:58;26.82;42.79
68026;SHT31;54819;48.030;14.710;2023-07-20T13:32:29;26.64;42.02
68026;SHT31;54819;48.030;14.710;2023-07-20T13:35:00;26.43;42.35
68026;SHT31;54819;48.030;14.710;2023-07-20T13:37:27;26.46;43.38
68026;SHT31;54819;48.030;14.710;2023-07-20T13:39:55;26.55;42.70
68026;SHT31;54819;48.030;14.710;2023-07-20T13:42:23;26.55;42.05
68026;SHT31;54819;48.030;14.710;2023-07-20T13:44:49;26.57;42.60
68026;SHT31;54819;48.030;14.710;2023-07-20T13:47:16;26.60;42.35
68026;SHT31;54819;48.030;14.710;2023-07-20T13:49:46;26.62;42.45
68026;SHT31;54819;48.030;14.710;2023-07-20T13:52:15;26.70;42.74
68026;SHT31;54819;48.030;14.710;2023-07-20T13:54:44;26.70;41.69
68026;SHT31;54819;48.030;14.710;2023-07-20T13:57:18;26.65;41.23
68026;SHT31;54819;48.030;14.710;2023-07-20T13:59:44;26.50;41.45
68026;SHT31;54819;48.030;14.710;2023-07-20T14:02:13;26.57;42.22
68026;SHT31;54819;48.030;14.710;2023-07-20T14:04:44;26.69;42.41
68026;SHT31;54819;48.030;14.710;2023-07-20T14:07:11;26.81;42.58
68026;SHT31;54819;48.030;14.710;2023-07-20T14:09:42;26.92;42.28
68026;SHT31;54819;48.030;14.710;2023-07-20T14:12:12;27.00;42.20
68026;SHT31;54819;48.030;14.710;2023-07-20T14:14:43;27.05;42.16
68026;SHT31;54819;48.030;14.710;2023-07-20T14:17:09;27.13;42.07
68026;SHT31;54819;48.030;14.710;2023-07-20T14:19:37;27.27;42.27
68026;SHT31;54819;48.030;14.710;2023-07-20T14:22:04;27.42;41.91
68026;SHT31;54819;48.030;14.710;2023-07-20T14:24:31;27.50;41.54
68026;SHT31;54819;48.030;14.710;2023-07-20T14:26:57;27.52;40.34
68026;SHT31;54819;48.030;14.710;2023-07-20T14:29:27;27.43;40.23
68026;SHT31;54819;48.030;14.710;2023-07-20T14:31:58;27.44;40.53
68026;SHT31;54819;48.030;14.710;2023-07-20T14:34:25;27.52;40.78
68026;SHT31;54819;48.030;14.710;2023-07-20T14:36:52;27.64;41.39
68026;SHT31;54819;48.030;14.710;2023-07-20T14:39:19;27.71;41.41
68026;SHT31;54819;48.030;14.710;2023-07-20T14:41:46;27.71;41.31
68026;SHT31;54819;48.030;14.710;2023-07-20T14:44:13;27.62;41.16
68026;SHT31;54819;48.030;14.710;2023-07-20T14:46:40;27.60;40.94
68026;SHT31;54819;48.030;14.710;2023-07-20T14:49:07;27.60;40.86
68026;SHT31;54819;48.030;14.710;2023-07-20T14:51:33;27.50;40.70
68026;SHT31;54819;48.030;14.710;2023-07-20T14:54:03;27.46;40.98
68026;SHT31;54819;48.030;14.710;2023-07-20T14:56:30;27.46;40.58
68026;SHT31;54819;48.030;14.710;2023-07-20T14:58:57;27.48;41.51
68026;SHT31;54819;48.030;14.710;2023-07-20T15:01:24;27.53;41.38
68026;SHT31;54819;48.030;14.710;2023-07-20T15:03:51;27.52;40.86
68026;SHT31;54819;48.030;14.710;2023-07-20T15:06:24;27.50;40.59
68026;SHT31;54819;48.030;14.710;2023-07-20T15:08:52;27.44;40.78
68026;SHT31;54819;48.030;14.710;2023-07-20T15:11:19;27.36;40.76
68026;SHT31;54819;48.030;14.710;2023-07-20T15:13:45;27.33;40.98
68026;SHT31;54819;48.030;14.710;2023-07-20T15:16:12;27.35;41.49
68026;SHT31;54819;48.030;14.710;2023-07-20T15:18:39;27.35;41.60
68026;SHT31;54819;48.030;14.710;2023-07-20T15:21:17;27.34;41.57
68026;SHT31;54819;48.030;14.710;2023-07-20T15:23:43;27.34;41.15
68026;SHT31;54819;48.030;14.710;2023-07-20T15:26:10;27.30;41.16
68026;SHT31;54819;48.030;14.710;2023-07-20T15:28:39;27.34;41.79
68026;SHT31;54819;48.030;14.710;2023-07-20T15:31:06;27.40;41.28
68026;SHT31;54819;48.030;14.710;2023-07-20T15:33:33;27.41;40.92
68026;SHT31;54819;48.030;14.710;2023-07-20T15:36:00;27.48;41.39
68026;SHT31;54819;48.030;14.710;2023-07-20T15:38:26;27.56;41.19
68026;SHT31;54819;48.030;14.710;2023-07-20T15:40:53;27.61;41.35
68026;SHT31;54819;48.030;14.710;2023-07-20T15:43:21;27.66;41.27
68026;SHT31;54819;48.030;14.710;2023-07-20T15:45:48;27.63;41.17
68026;SHT31;54819;48.030;14.710;2023-07-20T15:48:18;27.54;41.37
68026;SHT31;54819;48.030;14.710;2023-07-20T15:50:48;27.45;41.43